GOLEM03 KBAD-KHST
Flight info
| Callsign | GOLEM03 |
|---|---|
| Flight time | N/A |
| Altitude | 32000 |
| Route | KBAD RWY15 DCT STAGE J20 KAMEN DCT CLAYS DCT SNEAD DCT KENLL DCT JIPOD DCT WIDET DCT RONQU DCT BLUFI DCT TARPN DCT SPNER DCT IMAPY DCT WERGO DCT CAHOO TARPN3 KHST WERGO APPROACH RNAV24 |
| Aircraft | K35R/H-SDE2E3FGHIJ1RWXYZ/LB1 |
Departure
| Time | 2026-05-09 00:53 |
|---|---|
| Airport | Barksdale Air Force Base (KBAD) |
Arrival
| Time | N/A |
|---|---|
| Airport | Homestead Air Reserve Base (KHST) |
| Time | Latitude | Longitude | Altitude | Speed | Heading |
|---|---|---|---|---|---|
| 2026-05-09 00:43 | 32.51305 | -93.67705 | 174 ft | 0 kts | 60° |
| 2026-05-09 00:48 | 32.51313 | -93.67701 | 174 ft | 1 kts | 6° |
| 2026-05-09 00:48 | 32.51320 | -93.67713 | 174 ft | 2 kts | 272° |
| 2026-05-09 00:48 | 32.51301 | -93.67744 | 175 ft | 0 kts | 219° |
| 2026-05-09 00:49 | 32.51292 | -93.67760 | 175 ft | 4 kts | 253° |
| 2026-05-09 00:49 | 32.51315 | -93.67814 | 175 ft | 12 kts | 313° |
| 2026-05-09 00:49 | 32.51381 | -93.67866 | 175 ft | 10 kts | 357° |
| 2026-05-09 00:49 | 32.51422 | -93.67841 | 174 ft | 8 kts | 54° |
| 2026-05-09 00:50 | 32.51447 | -93.67760 | 174 ft | 13 kts | 74° |
| 2026-05-09 00:50 | 32.51476 | -93.67631 | 172 ft | 19 kts | 74° |
| 2026-05-09 00:50 | 32.51514 | -93.67464 | 171 ft | 21 kts | 74° |
| 2026-05-09 00:50 | 32.51544 | -93.67333 | 172 ft | 14 kts | 75° |
| 2026-05-09 00:51 | 32.51554 | -93.67289 | 173 ft | 0 kts | 75° |
| 2026-05-09 00:51 | 32.51556 | -93.67281 | 173 ft | 5 kts | 76° |
| 2026-05-09 00:51 | 32.51572 | -93.67210 | 173 ft | 13 kts | 77° |
| 2026-05-09 00:52 | 32.51542 | -93.67125 | 175 ft | 12 kts | 150° |
| 2026-05-09 00:52 | 32.51297 | -93.66968 | 175 ft | 85 kts | 151° |
| 2026-05-09 00:52 | 32.50517 | -93.66466 | 171 ft | 164 kts | 152° |
| 2026-05-09 00:52 | 32.49373 | -93.65742 | 574 ft | 197 kts | 150° |
| 2026-05-09 00:53 | 32.48151 | -93.64901 | 1465 ft | 209 kts | 150° |
| 2026-05-09 00:53 | 32.46876 | -93.64010 | 2395 ft | 219 kts | 151° |
| 2026-05-09 00:53 | 32.45498 | -93.63061 | 3091 ft | 235 kts | 150° |
| 2026-05-09 00:53 | 32.44003 | -93.62037 | 3787 ft | 267 kts | 151° |
| 2026-05-09 00:54 | 32.42271 | -93.60847 | 4533 ft | 307 kts | 151° |
| 2026-05-09 00:54 | 32.40332 | -93.59501 | 5279 ft | 340 kts | 150° |
| 2026-05-09 00:54 | 32.38205 | -93.58005 | 6038 ft | 370 kts | 149° |
| 2026-05-09 00:54 | 32.36262 | -93.55878 | 6750 ft | 398 kts | 125° |
| 2026-05-09 00:55 | 32.35270 | -93.52736 | 7365 ft | 425 kts | 98° |
| 2026-05-09 00:55 | 32.35522 | -93.49161 | 7696 ft | 453 kts | 72° |
| 2026-05-09 00:55 | 32.37066 | -93.45829 | 7862 ft | 476 kts | 49° |
| 2026-05-09 00:55 | 32.39690 | -93.43363 | 7963 ft | 493 kts | 26° |
| 2026-05-09 00:56 | 32.42955 | -93.41975 | 8094 ft | 506 kts | 13° |
| 2026-05-09 00:56 | 32.46377 | -93.40831 | 8338 ft | 517 kts | 14° |
| 2026-05-09 00:56 | 32.49823 | -93.39521 | 8461 ft | 519 kts | 17° |
| 2026-05-09 00:56 | 32.53139 | -93.38009 | 8269 ft | 504 kts | 20° |
| 2026-05-09 00:57 | 32.56216 | -93.36095 | 8114 ft | 501 kts | 33° |
| 2026-05-09 00:57 | 32.58732 | -93.33268 | 8022 ft | 497 kts | 47° |
| 2026-05-09 00:57 | 32.60881 | -93.30076 | 7978 ft | 492 kts | 52° |
| 2026-05-09 00:57 | 32.62805 | -93.26739 | 7934 ft | 488 kts | 56° |
| 2026-05-09 00:58 | 32.64568 | -93.23330 | 7916 ft | 484 kts | 58° |
| 2026-05-09 00:58 | 32.66249 | -93.19882 | 7907 ft | 481 kts | 59° |
| 2026-05-09 00:58 | 32.67709 | -93.16318 | 7899 ft | 479 kts | 68° |
| 2026-05-09 00:58 | 32.68759 | -93.12567 | 7905 ft | 477 kts | 71° |
| 2026-05-09 00:59 | 32.69933 | -93.08908 | 7902 ft | 474 kts | 65° |
| 2026-05-09 00:59 | 32.70985 | -93.05217 | 7868 ft | 474 kts | 79° |
| 2026-05-09 00:59 | 32.71055 | -93.01325 | 7873 ft | 474 kts | 96° |
| 2026-05-09 00:59 | 32.70517 | -92.97472 | 7994 ft | 469 kts | 101° |
| 2026-05-09 01:00 | 32.70064 | -92.93679 | 8439 ft | 459 kts | 94° |
| 2026-05-09 01:00 | 32.69915 | -92.89934 | 8888 ft | 452 kts | 92° |
| 2026-05-09 01:00 | 32.69630 | -92.86238 | 9326 ft | 446 kts | 98° |
| 2026-05-09 01:00 | 32.69185 | -92.82627 | 9779 ft | 441 kts | 96° |
| 2026-05-09 01:01 | 32.68998 | -92.79016 | 10325 ft | 435 kts | 92° |
| 2026-05-09 01:01 | 32.68702 | -92.75374 | 11014 ft | 452 kts | 98° |
| 2026-05-09 01:01 | 32.68266 | -92.71613 | 11748 ft | 467 kts | 95° |
| 2026-05-09 01:01 | 32.68074 | -92.67710 | 12494 ft | 479 kts | 93° |
| 2026-05-09 01:02 | 32.67681 | -92.63742 | 13269 ft | 490 kts | 99° |
| 2026-05-09 01:02 | 32.67259 | -92.59704 | 14007 ft | 498 kts | 94° |
| 2026-05-09 01:02 | 32.66781 | -92.55596 | 14694 ft | 506 kts | 104° |
| 2026-05-09 01:02 | 32.65767 | -92.51583 | 15420 ft | 511 kts | 111° |
| 2026-05-09 01:03 | 32.64286 | -92.47724 | 16157 ft | 515 kts | 119° |
| 2026-05-09 01:03 | 32.62673 | -92.43922 | 16894 ft | 521 kts | 116° |
| 2026-05-09 01:03 | 32.61325 | -92.39911 | 17674 ft | 526 kts | 112° |
| 2026-05-09 01:03 | 32.59902 | -92.35906 | 18426 ft | 527 kts | 118° |
| 2026-05-09 01:04 | 32.58291 | -92.31983 | 19118 ft | 531 kts | 117° |
| 2026-05-09 01:04 | 32.56924 | -92.27903 | 19838 ft | 535 kts | 114° |
| 2026-05-09 01:04 | 32.55422 | -92.23885 | 20542 ft | 534 kts | 120° |
| 2026-05-09 01:04 | 32.53828 | -92.19885 | 21279 ft | 539 kts | 116° |
| 2026-05-09 01:05 | 32.52448 | -92.15730 | 22032 ft | 540 kts | 116° |
| 2026-05-09 01:05 | 32.50848 | -92.11717 | 22809 ft | 539 kts | 121° |
| 2026-05-09 01:05 | 32.47890 | -92.03492 | 24263 ft | 543 kts | 120° |
| 2026-05-09 01:06 | 32.46243 | -91.99474 | 24945 ft | 544 kts | 120° |
| 2026-05-09 01:06 | 32.44810 | -91.95315 | 25651 ft | 547 kts | 117° |
| 2026-05-09 01:06 | 32.43246 | -91.91229 | 26365 ft | 542 kts | 123° |
| 2026-05-09 01:06 | 32.41670 | -91.87160 | 27096 ft | 547 kts | 118° |
| 2026-05-09 01:07 | 32.40228 | -91.82994 | 27859 ft | 544 kts | 121° |
| 2026-05-09 01:07 | 32.38609 | -91.79043 | 28628 ft | 544 kts | 122° |
| 2026-05-09 01:07 | 32.37133 | -91.74835 | 29446 ft | 547 kts | 119° |
| 2026-05-09 01:07 | 32.35592 | -91.70823 | 30195 ft | 541 kts | 124° |
| 2026-05-09 01:08 | 32.34489 | -91.68094 | 30467 ft | 549 kts | 121° |
| 2026-05-09 01:08 | 32.32531 | -91.62536 | 31130 ft | 551 kts | 123° |
| 2026-05-09 01:08 | 32.31398 | -91.59776 | 31450 ft | 552 kts | 124° |
| 2026-05-09 01:08 | 32.29820 | -91.55584 | 31698 ft | 567 kts | 120° |
| 2026-05-09 01:09 | 32.27677 | -91.49887 | 31867 ft | 575 kts | 124° |
| 2026-05-09 01:09 | 32.26509 | -91.46975 | 31901 ft | 587 kts | 121° |
| 2026-05-09 01:09 | 32.24941 | -91.42468 | 31933 ft | 597 kts | 121° |
| 2026-05-09 01:10 | 32.21489 | -91.33527 | 31945 ft | 603 kts | 119° |
| 2026-05-09 01:10 | 32.18007 | -91.24584 | 31947 ft | 602 kts | 120° |
| 2026-05-09 01:11 | 32.14585 | -91.15640 | 31941 ft | 597 kts | 123° |
| 2026-05-09 01:11 | 32.11225 | -91.06666 | 31948 ft | 594 kts | 124° |
| 2026-05-09 01:12 | 32.07854 | -90.97712 | 31942 ft | 595 kts | 122° |
| 2026-05-09 01:12 | 32.04525 | -90.89141 | 31948 ft | 598 kts | 119° |
| 2026-05-09 01:13 | 32.01042 | -90.80333 | 31948 ft | 596 kts | 119° |
| 2026-05-09 01:13 | 31.97596 | -90.71514 | 31950 ft | 593 kts | 121° |
| 2026-05-09 01:14 | 31.94220 | -90.62662 | 31957 ft | 589 kts | 124° |
| 2026-05-09 01:14 | 31.90857 | -90.53811 | 31948 ft | 589 kts | 123° |
| 2026-05-09 01:15 | 31.87468 | -90.45086 | 31949 ft | 592 kts | 120° |
| 2026-05-09 01:15 | 31.83986 | -90.36365 | 31947 ft | 592 kts | 118° |
| 2026-05-09 01:16 | 31.80512 | -90.27664 | 31943 ft | 589 kts | 120° |
| 2026-05-09 01:16 | 31.77101 | -90.18937 | 31951 ft | 585 kts | 122° |
| 2026-05-09 01:17 | 31.71963 | -90.05900 | 31952 ft | 587 kts | 119° |
| 2026-05-09 01:17 | 31.68537 | -89.97250 | 31950 ft | 584 kts | 122° |
| 2026-05-09 01:18 | 31.65214 | -89.88651 | 31975 ft | 572 kts | 123° |
| 2026-05-09 01:18 | 31.62002 | -89.80398 | 31942 ft | 567 kts | 121° |
| 2026-05-09 01:19 | 31.58620 | -89.72013 | 31960 ft | 572 kts | 117° |
| 2026-05-09 01:19 | 31.56937 | -89.67841 | 31949 ft | 559 kts | 123° |
| 2026-05-09 01:19 | 31.55231 | -89.63741 | 31964 ft | 563 kts | 118° |
| 2026-05-09 01:20 | 31.51909 | -89.55464 | 31963 ft | 560 kts | 121° |
| 2026-05-09 01:20 | 31.48637 | -89.47131 | 31971 ft | 558 kts | 123° |
| 2026-05-09 01:21 | 31.45365 | -89.38812 | 31979 ft | 564 kts | 121° |
| 2026-05-09 01:21 | 31.42018 | -89.30523 | 31981 ft | 566 kts | 118° |
| 2026-05-09 01:22 | 31.38594 | -89.22227 | 31983 ft | 570 kts | 117° |
| 2026-05-09 01:22 | 31.35180 | -89.13916 | 31952 ft | 568 kts | 119° |
| 2026-05-09 01:23 | 31.31818 | -89.05553 | 31946 ft | 566 kts | 122° |
| 2026-05-09 01:23 | 31.28481 | -88.97142 | 31929 ft | 566 kts | 122° |
| 2026-05-09 01:24 | 31.25109 | -88.88760 | 31920 ft | 571 kts | 120° |
| 2026-05-09 01:24 | 31.21765 | -88.80345 | 31901 ft | 580 kts | 111° |
| 2026-05-09 01:25 | 31.19836 | -88.71107 | 31897 ft | 593 kts | 100° |
| 2026-05-09 01:25 | 31.19013 | -88.61539 | 31914 ft | 586 kts | 102° |
| 2026-05-09 01:26 | 31.17883 | -88.52151 | 31928 ft | 588 kts | 98° |
| 2026-05-09 01:26 | 31.16702 | -88.42741 | 31938 ft | 588 kts | 98° |
| 2026-05-09 01:27 | 31.15566 | -88.33327 | 31931 ft | 584 kts | 101° |
| 2026-05-09 01:27 | 31.14503 | -88.23901 | 31946 ft | 583 kts | 103° |
| 2026-05-09 01:28 | 31.13459 | -88.14528 | 31953 ft | 585 kts | 102° |
| 2026-05-09 01:28 | 31.12330 | -88.05035 | 31972 ft | 590 kts | 99° |
| 2026-05-09 01:29 | 31.11132 | -87.95635 | 31979 ft | 588 kts | 98° |
| 2026-05-09 01:29 | 31.09929 | -87.86210 | 31967 ft | 589 kts | 99° |
| 2026-05-09 01:30 | 31.08791 | -87.76825 | 31972 ft | 586 kts | 102° |
| 2026-05-09 01:30 | 31.07699 | -87.67364 | 31967 ft | 588 kts | 103° |
| 2026-05-09 01:31 | 31.06578 | -87.57879 | 31963 ft | 589 kts | 102° |
| 2026-05-09 01:31 | 31.05378 | -87.48436 | 31964 ft | 592 kts | 99° |
| 2026-05-09 01:32 | 31.04120 | -87.38980 | 31965 ft | 591 kts | 98° |
| 2026-05-09 01:32 | 31.02894 | -87.29541 | 31956 ft | 588 kts | 101° |
| 2026-05-09 01:33 | 31.01736 | -87.20080 | 31967 ft | 588 kts | 103° |
| 2026-05-09 01:33 | 31.00601 | -87.10590 | 31970 ft | 589 kts | 103° |
| 2026-05-09 01:34 | 30.99414 | -87.01137 | 31978 ft | 592 kts | 101° |
| 2026-05-09 01:34 | 30.98141 | -86.91701 | 31970 ft | 592 kts | 98° |
| 2026-05-09 01:35 | 30.96849 | -86.82267 | 31969 ft | 592 kts | 99° |
| 2026-05-09 01:35 | 30.95609 | -86.72803 | 31994 ft | 589 kts | 102° |
| 2026-05-09 01:36 | 30.94431 | -86.63305 | 32011 ft | 591 kts | 104° |
| 2026-05-09 01:36 | 30.93235 | -86.53796 | 32012 ft | 593 kts | 102° |
| 2026-05-09 01:37 | 30.92024 | -86.44934 | 32024 ft | 596 kts | 99° |
| 2026-05-09 01:37 | 30.90691 | -86.35510 | 32020 ft | 592 kts | 99° |
| 2026-05-09 01:38 | 30.89399 | -86.26064 | 32021 ft | 589 kts | 102° |
| 2026-05-09 01:38 | 30.88229 | -86.16901 | 32034 ft | 590 kts | 104° |
| 2026-05-09 01:39 | 30.87004 | -86.07402 | 32025 ft | 593 kts | 103° |
| 2026-05-09 01:39 | 30.85723 | -85.98066 | 32027 ft | 586 kts | 99° |
| 2026-05-09 01:40 | 30.84360 | -85.88677 | 32034 ft | 587 kts | 99° |
| 2026-05-09 01:40 | 30.83017 | -85.79334 | 32018 ft | 588 kts | 101° |
| 2026-05-09 01:41 | 30.81751 | -85.69928 | 32027 ft | 585 kts | 104° |
| 2026-05-09 01:41 | 30.80516 | -85.60523 | 32017 ft | 585 kts | 103° |
| 2026-05-09 01:42 | 30.79240 | -85.51244 | 32030 ft | 589 kts | 101° |
| 2026-05-09 01:42 | 30.77856 | -85.41801 | 32037 ft | 589 kts | 98° |
| 2026-05-09 01:43 | 30.76461 | -85.32457 | 32032 ft | 588 kts | 99° |
| 2026-05-09 01:43 | 30.75126 | -85.23174 | 32036 ft | 584 kts | 102° |
| 2026-05-09 01:44 | 30.73849 | -85.13790 | 32029 ft | 584 kts | 104° |
| 2026-05-09 01:44 | 30.72563 | -85.04418 | 32028 ft | 586 kts | 103° |
| 2026-05-09 01:45 | 30.71203 | -84.95087 | 32042 ft | 589 kts | 99° |
| 2026-05-09 01:45 | 30.69776 | -84.85745 | 32029 ft | 589 kts | 98° |
| 2026-05-09 01:46 | 30.68005 | -84.76538 | 32022 ft | 579 kts | 113° |
| 2026-05-09 01:46 | 30.65198 | -84.67774 | 32027 ft | 584 kts | 109° |
| 2026-05-09 01:47 | 30.62649 | -84.58849 | 32042 ft | 580 kts | 113° |
| 2026-05-09 01:47 | 30.60151 | -84.49886 | 32043 ft | 582 kts | 114° |
| 2026-05-09 01:48 | 30.57614 | -84.40926 | 32050 ft | 585 kts | 112° |
| 2026-05-09 01:48 | 30.54998 | -84.32009 | 32055 ft | 588 kts | 109° |
| 2026-05-09 01:49 | 30.52334 | -84.23106 | 32033 ft | 586 kts | 109° |
| 2026-05-09 01:49 | 30.49706 | -84.14194 | 32047 ft | 584 kts | 112° |
| 2026-05-09 01:50 | 30.47203 | -84.05419 | 32042 ft | 579 kts | 114° |
| 2026-05-09 01:50 | 30.44674 | -83.96537 | 32021 ft | 579 kts | 113° |
| 2026-05-09 01:51 | 30.42070 | -83.87667 | 32039 ft | 584 kts | 110° |
| 2026-05-09 01:51 | 30.39400 | -83.78832 | 32046 ft | 584 kts | 109° |
| 2026-05-09 01:52 | 30.36723 | -83.69973 | 32047 ft | 584 kts | 111° |
| 2026-05-09 01:52 | 30.34596 | -83.62553 | 32048 ft | 582 kts | 115° |
| 2026-05-09 01:53 | 30.32011 | -83.53638 | 32050 ft | 583 kts | 113° |
| 2026-05-09 01:53 | 30.29365 | -83.44792 | 32062 ft | 589 kts | 110° |
| 2026-05-09 01:54 | 30.26626 | -83.35883 | 32058 ft | 591 kts | 109° |
| 2026-05-09 01:54 | 30.23898 | -83.26929 | 32050 ft | 586 kts | 111° |
| 2026-05-09 01:55 | 30.21255 | -83.18023 | 32050 ft | 583 kts | 114° |
| 2026-05-09 01:55 | 30.18662 | -83.09145 | 32056 ft | 583 kts | 114° |
| 2026-05-09 01:56 | 30.15999 | -83.00217 | 32063 ft | 587 kts | 112° |
| 2026-05-09 01:56 | 30.13267 | -82.91359 | 32088 ft | 588 kts | 109° |
| 2026-05-09 01:57 | 30.10512 | -82.82533 | 32070 ft | 589 kts | 110° |
| 2026-05-09 01:57 | 30.07795 | -82.73667 | 32083 ft | 585 kts | 113° |
| 2026-05-09 01:58 | 30.05143 | -82.64763 | 32076 ft | 584 kts | 115° |
| 2026-05-09 01:58 | 30.02492 | -82.55889 | 32072 ft | 584 kts | 114° |
| 2026-05-09 01:59 | 29.99774 | -82.47041 | 32085 ft | 587 kts | 111° |
| 2026-05-09 01:59 | 29.96993 | -82.38246 | 32109 ft | 586 kts | 110° |
| 2026-05-09 02:00 | 29.94216 | -82.29433 | 32102 ft | 587 kts | 111° |
| 2026-05-09 02:00 | 29.91495 | -82.20578 | 32098 ft | 582 kts | 115° |
| 2026-05-09 02:01 | 29.88826 | -82.11726 | 32099 ft | 584 kts | 115° |
| 2026-05-09 02:01 | 29.86118 | -82.02878 | 32105 ft | 586 kts | 113° |
| 2026-05-09 02:02 | 29.83323 | -81.94035 | 32124 ft | 590 kts | 110° |
| 2026-05-09 02:02 | 29.80487 | -81.85218 | 32120 ft | 590 kts | 110° |
| 2026-05-09 02:03 | 29.77680 | -81.76382 | 32105 ft | 586 kts | 113° |
| 2026-05-09 02:03 | 29.74950 | -81.67535 | 32096 ft | 585 kts | 116° |
| 2026-05-09 02:04 | 29.72220 | -81.58645 | 32072 ft | 586 kts | 115° |
| 2026-05-09 02:04 | 29.69453 | -81.49828 | 32060 ft | 589 kts | 112° |
| 2026-05-09 02:05 | 29.66607 | -81.41034 | 32049 ft | 590 kts | 110° |
| 2026-05-09 02:05 | 29.63742 | -81.32249 | 32029 ft | 588 kts | 111° |
| 2026-05-09 02:06 | 29.60927 | -81.23460 | 32019 ft | 586 kts | 114° |
| 2026-05-09 02:07 | 29.55602 | -81.11108 | 31911 ft | 560 kts | 145° |
| 2026-05-09 02:07 | 29.52395 | -81.08782 | 31902 ft | 538 kts | 162° |
| 2026-05-09 02:07 | 29.48967 | -81.07121 | 31954 ft | 533 kts | 166° |
| 2026-05-09 02:08 | 29.42035 | -81.04024 | 32002 ft | 541 kts | 163° |
| 2026-05-09 02:08 | 29.35237 | -81.00069 | 32004 ft | 540 kts | 163° |
| 2026-05-09 02:09 | 29.28426 | -80.96348 | 32036 ft | 549 kts | 160° |
| 2026-05-09 02:09 | 29.21669 | -80.92748 | 32033 ft | 548 kts | 159° |
| 2026-05-09 02:10 | 29.14815 | -80.89046 | 32029 ft | 544 kts | 162° |
| 2026-05-09 02:10 | 29.07981 | -80.85261 | 32025 ft | 541 kts | 164° |
| 2026-05-09 02:11 | 29.01150 | -80.81451 | 32019 ft | 542 kts | 163° |
| 2026-05-09 02:11 | 28.94350 | -80.77729 | 32020 ft | 550 kts | 161° |
| 2026-05-09 02:12 | 28.87471 | -80.74070 | 32010 ft | 551 kts | 159° |
| 2026-05-09 02:12 | 28.80579 | -80.70400 | 31994 ft | 548 kts | 161° |
| 2026-05-09 02:13 | 28.73713 | -80.66660 | 31980 ft | 543 kts | 163° |
| 2026-05-09 02:13 | 28.66849 | -80.62858 | 31971 ft | 542 kts | 164° |
| 2026-05-09 02:14 | 28.59943 | -80.59072 | 31982 ft | 548 kts | 162° |
| 2026-05-09 02:14 | 28.53123 | -80.55447 | 31967 ft | 551 kts | 159° |
| 2026-05-09 02:14 | 28.49693 | -80.53611 | 31942 ft | 538 kts | 164° |
| 2026-05-09 02:15 | 28.46269 | -80.51840 | 31961 ft | 544 kts | 160° |
| 2026-05-09 02:15 | 28.39449 | -80.48191 | 31951 ft | 540 kts | 162° |
| 2026-05-09 02:16 | 28.32641 | -80.44463 | 31971 ft | 542 kts | 164° |
| 2026-05-09 02:16 | 28.25798 | -80.40715 | 31967 ft | 543 kts | 163° |
| 2026-05-09 02:17 | 28.18957 | -80.37045 | 31984 ft | 547 kts | 160° |
| 2026-05-09 02:17 | 28.12077 | -80.33448 | 31990 ft | 549 kts | 159° |
| 2026-05-09 02:18 | 28.05145 | -80.30150 | 31959 ft | 532 kts | 170° |
| 2026-05-09 02:18 | 27.98100 | -80.27323 | 31998 ft | 543 kts | 164° |
| 2026-05-09 02:19 | 27.91049 | -80.24520 | 32010 ft | 540 kts | 165° |
| 2026-05-09 02:19 | 27.84024 | -80.21663 | 32002 ft | 534 kts | 167° |
| 2026-05-09 02:20 | 27.77021 | -80.18734 | 32000 ft | 532 kts | 169° |
| 2026-05-09 02:20 | 27.70011 | -80.15786 | 32009 ft | 536 kts | 168° |
| 2026-05-09 02:21 | 27.62970 | -80.12903 | 32017 ft | 543 kts | 165° |
| 2026-05-09 02:21 | 27.55904 | -80.10096 | 32022 ft | 543 kts | 163° |
| 2026-05-09 02:22 | 27.48832 | -80.07279 | 32012 ft | 540 kts | 165° |
| 2026-05-09 02:22 | 27.41783 | -80.04407 | 32010 ft | 535 kts | 168° |
| 2026-05-09 02:23 | 27.34764 | -80.01471 | 32007 ft | 535 kts | 168° |
| 2026-05-09 02:23 | 27.27929 | -79.98638 | 32004 ft | 543 kts | 166° |
| 2026-05-09 02:24 | 27.20764 | -79.95787 | 32019 ft | 553 kts | 163° |
| 2026-05-09 02:24 | 27.13498 | -79.92931 | 32016 ft | 558 kts | 164° |
| 2026-05-09 02:25 | 27.06207 | -79.89996 | 32020 ft | 556 kts | 167° |
| 2026-05-09 02:25 | 26.98923 | -79.86990 | 32023 ft | 555 kts | 168° |
| 2026-05-09 02:26 | 26.91636 | -79.84045 | 31990 ft | 552 kts | 172° |
| 2026-05-09 02:26 | 26.87886 | -79.83790 | 31948 ft | 533 kts | 192° |
| 2026-05-09 02:26 | 26.84360 | -79.84812 | 31975 ft | 519 kts | 206° |
| 2026-05-09 02:27 | 26.77707 | -79.87905 | 32006 ft | 522 kts | 204° |
| 2026-05-09 02:27 | 26.70818 | -79.90519 | 31774 ft | 522 kts | 207° |
| 2026-05-09 02:27 | 26.67422 | -79.91921 | 31372 ft | 518 kts | 203° |
| 2026-05-09 02:28 | 26.64913 | -79.92793 | 30902 ft | 510 kts | 204° |
| 2026-05-09 02:28 | 26.61694 | -79.94185 | 30224 ft | 501 kts | 207° |
| 2026-05-09 02:28 | 26.58396 | -79.95447 | 29436 ft | 499 kts | 202° |
| 2026-05-09 02:28 | 26.55159 | -79.96694 | 28652 ft | 488 kts | 206° |
| 2026-05-09 02:29 | 26.51976 | -79.97957 | 27887 ft | 482 kts | 204° |
| 2026-05-09 02:29 | 26.48915 | -79.99339 | 27130 ft | 469 kts | 210° |
| 2026-05-09 02:29 | 26.45968 | -80.00844 | 26365 ft | 464 kts | 206° |
| 2026-05-09 02:29 | 26.42925 | -80.01935 | 25571 ft | 452 kts | 200° |
| 2026-05-09 02:30 | 26.39877 | -80.02723 | 24867 ft | 451 kts | 194° |
| 2026-05-09 02:30 | 26.36749 | -80.02989 | 24208 ft | 450 kts | 187° |
| 2026-05-09 02:30 | 26.33689 | -80.03198 | 23550 ft | 440 kts | 192° |
| 2026-05-09 02:30 | 26.30678 | -80.03650 | 22769 ft | 433 kts | 193° |
| 2026-05-09 02:31 | 26.27689 | -80.03978 | 21996 ft | 431 kts | 186° |
| 2026-05-09 02:31 | 26.24712 | -80.04071 | 21247 ft | 423 kts | 190° |
| 2026-05-09 02:31 | 26.21880 | -80.04729 | 20536 ft | 412 kts | 198° |
| 2026-05-09 02:31 | 26.19142 | -80.05601 | 19827 ft | 405 kts | 200° |
| 2026-05-09 02:32 | 26.16532 | -80.06683 | 19145 ft | 396 kts | 207° |
| 2026-05-09 02:32 | 26.14070 | -80.08003 | 18455 ft | 390 kts | 207° |
| 2026-05-09 02:32 | 26.11580 | -80.09146 | 17703 ft | 386 kts | 202° |
| 2026-05-09 02:32 | 26.09097 | -80.10231 | 16943 ft | 379 kts | 206° |
| 2026-05-09 02:33 | 26.06733 | -80.11451 | 16205 ft | 374 kts | 205° |
| 2026-05-09 02:33 | 26.04322 | -80.12501 | 15494 ft | 369 kts | 202° |
| 2026-05-09 02:33 | 26.01970 | -80.13605 | 14786 ft | 363 kts | 206° |
| 2026-05-09 02:33 | 25.99684 | -80.14740 | 14096 ft | 359 kts | 203° |
| 2026-05-09 02:34 | 25.97370 | -80.15739 | 13375 ft | 354 kts | 202° |
| 2026-05-09 02:34 | 25.95131 | -80.16827 | 12625 ft | 349 kts | 205° |
| 2026-05-09 02:34 | 25.92932 | -80.17911 | 11898 ft | 344 kts | 203° |
| 2026-05-09 02:34 | 25.90692 | -80.18766 | 11190 ft | 339 kts | 196° |
| 2026-05-09 02:35 | 25.88417 | -80.19417 | 10496 ft | 334 kts | 194° |
| 2026-05-09 02:35 | 25.86177 | -80.20010 | 9806 ft | 329 kts | 193° |
| 2026-05-09 02:35 | 25.83962 | -80.20584 | 9040 ft | 325 kts | 193° |
| 2026-05-09 02:35 | 25.81791 | -80.21143 | 8309 ft | 321 kts | 193° |
| 2026-05-09 02:36 | 25.79615 | -80.21706 | 7578 ft | 317 kts | 193° |
| 2026-05-09 02:36 | 25.78170 | -80.22084 | 7102 ft | 315 kts | 193° |
| 2026-05-09 02:36 | 25.76069 | -80.22641 | 6413 ft | 312 kts | 193° |
| 2026-05-09 02:36 | 25.73930 | -80.23214 | 5665 ft | 310 kts | 193° |
| 2026-05-09 02:37 | 25.71840 | -80.23772 | 4940 ft | 308 kts | 193° |
| 2026-05-09 02:37 | 25.69771 | -80.24323 | 4196 ft | 306 kts | 193° |
| 2026-05-09 02:37 | 25.67748 | -80.24873 | 3888 ft | 289 kts | 193° |
| 2026-05-09 02:37 | 25.65903 | -80.25461 | 3728 ft | 270 kts | 198° |
| 2026-05-09 02:38 | 25.64260 | -80.26018 | 3590 ft | 228 kts | 192° |
| 2026-05-09 02:38 | 25.62809 | -80.26408 | 3385 ft | 206 kts | 191° |
| 2026-05-09 02:38 | 25.61481 | -80.26713 | 3111 ft | 189 kts | 187° |
| 2026-05-09 02:38 | 25.60159 | -80.26913 | 2663 ft | 185 kts | 185° |
| 2026-05-09 02:39 | 25.58924 | -80.27186 | 2313 ft | 181 kts | 196° |
| 2026-05-09 02:39 | 25.57832 | -80.27832 | 2049 ft | 175 kts | 210° |
| 2026-05-09 02:39 | 25.56881 | -80.28625 | 1828 ft | 167 kts | 218° |
| 2026-05-09 02:39 | 25.56037 | -80.29495 | 1690 ft | 160 kts | 223° |
| 2026-05-09 02:40 | 25.55309 | -80.30408 | 1471 ft | 162 kts | 227° |
| 2026-05-09 02:40 | 25.54582 | -80.31357 | 1239 ft | 161 kts | 226° |
| 2026-05-09 02:40 | 25.54065 | -80.31974 | 1141 ft | 165 kts | 224° |